OCN5JU EDDM-LEIB
Flight info
| Callsign | OCN5JU |
|---|---|
| Flight time | 2h 20m |
| Altitude | 37000 |
| Route | TURBU7S TURBU Y107 TOBSO DCT BAKOR DCT MISPO DCT PIDAD DCT TALEP DCT RARQU DCT BALEN/N0431F330 DCT SORAS N850 POS |
| Aircraft | A320/M-SDE2E3FGIJ1LORWXYZ/HB1 |
Departure
| Time | 2026-05-06 16:29 |
|---|---|
| Airport | Munich Airport (EDDM) |
Arrival
| Time | 2026-05-06 18:50 |
|---|---|
| Airport | Ibiza Airport (LEIB) |
| Time | Latitude | Longitude | Altitude | Speed | Heading |
|---|---|---|---|---|---|
| 2026-05-06 15:44 | 48.35059 | 11.79379 | 1458 ft | 0 kts | 263° |
| 2026-05-06 16:07 | 48.35059 | 11.79380 | 1485 ft | 1 kts | 263° |
| 2026-05-06 16:08 | 48.35062 | 11.79416 | 1482 ft | 4 kts | 258° |
| 2026-05-06 16:08 | 48.35069 | 11.79455 | 1483 ft | 4 kts | 251° |
| 2026-05-06 16:08 | 48.35079 | 11.79492 | 1471 ft | 4 kts | 233° |
| 2026-05-06 16:08 | 48.35097 | 11.79514 | 1485 ft | 3 kts | 180° |
| 2026-05-06 16:09 | 48.35101 | 11.79514 | 1471 ft | 0 kts | 173° |
| 2026-05-06 16:15 | 48.35087 | 11.79517 | 1480 ft | 9 kts | 173° |
| 2026-05-06 16:16 | 48.35014 | 11.79531 | 1475 ft | 10 kts | 173° |
| 2026-05-06 16:16 | 48.34954 | 11.79542 | 1480 ft | 8 kts | 173° |
| 2026-05-06 16:16 | 48.34912 | 11.79550 | 1475 ft | 0 kts | 173° |
| 2026-05-06 16:24 | 48.34862 | 11.79560 | 1481 ft | 8 kts | 173° |
| 2026-05-06 16:24 | 48.34811 | 11.79561 | 1485 ft | 7 kts | 185° |
| 2026-05-06 16:25 | 48.34771 | 11.79554 | 1485 ft | 5 kts | 187° |
| 2026-05-06 16:25 | 48.34708 | 11.79556 | 1485 ft | 10 kts | 174° |
| 2026-05-06 16:25 | 48.34643 | 11.79551 | 1485 ft | 9 kts | 201° |
| 2026-05-06 16:25 | 48.34603 | 11.79499 | 1478 ft | 7 kts | 230° |
| 2026-05-06 16:26 | 48.34577 | 11.79449 | 1479 ft | 5 kts | 233° |
| 2026-05-06 16:26 | 48.34559 | 11.79412 | 1481 ft | 4 kts | 233° |
| 2026-05-06 16:26 | 48.34547 | 11.79388 | 1478 ft | 2 kts | 233° |
| 2026-05-06 16:26 | 48.34531 | 11.79354 | 1481 ft | 13 kts | 233° |
| 2026-05-06 16:27 | 48.34497 | 11.79285 | 1473 ft | 0 kts | 233° |
| 2026-05-06 16:27 | 48.34455 | 11.79201 | 1484 ft | 18 kts | 233° |
| 2026-05-06 16:28 | 48.34378 | 11.79084 | 1475 ft | 12 kts | 233° |
| 2026-05-06 16:28 | 48.34362 | 11.78970 | 1479 ft | 10 kts | 263° |
| 2026-05-06 16:28 | 48.34349 | 11.78805 | 1472 ft | 38 kts | 262° |
| 2026-05-06 16:28 | 48.34288 | 11.78011 | 1485 ft | 111 kts | 264° |
| 2026-05-06 16:29 | 48.34177 | 11.76552 | 1478 ft | 166 kts | 264° |
| 2026-05-06 16:29 | 48.34062 | 11.74776 | 2096 ft | 169 kts | 264° |
| 2026-05-06 16:29 | 48.33942 | 11.73043 | 2923 ft | 167 kts | 265° |
| 2026-05-06 16:29 | 48.33844 | 11.71325 | 3623 ft | 162 kts | 266° |
| 2026-05-06 16:30 | 48.33688 | 11.69660 | 4144 ft | 165 kts | 244° |
| 2026-05-06 16:30 | 48.33198 | 11.68756 | 4313 ft | 176 kts | 208° |
| 2026-05-06 16:30 | 48.31504 | 11.68574 | 4647 ft | 201 kts | 167° |
| 2026-05-06 16:30 | 48.30052 | 11.69017 | 4910 ft | 223 kts | 166° |
| 2026-05-06 16:31 | 48.28645 | 11.70001 | 5571 ft | 226 kts | 140° |
| 2026-05-06 16:31 | 48.27482 | 11.71711 | 6054 ft | 245 kts | 133° |
| 2026-05-06 16:31 | 48.26210 | 11.73591 | 6459 ft | 264 kts | 141° |
| 2026-05-06 16:31 | 48.24706 | 11.75269 | 6959 ft | 272 kts | 147° |
| 2026-05-06 16:32 | 48.23134 | 11.76808 | 7774 ft | 274 kts | 149° |
| 2026-05-06 16:32 | 48.21462 | 11.78216 | 8587 ft | 276 kts | 160° |
| 2026-05-06 16:32 | 48.19659 | 11.79229 | 9468 ft | 277 kts | 162° |
| 2026-05-06 16:32 | 48.17835 | 11.80240 | 10147 ft | 286 kts | 162° |
| 2026-05-06 16:33 | 48.15886 | 11.81313 | 10380 ft | 309 kts | 162° |
| 2026-05-06 16:33 | 48.13819 | 11.82455 | 10863 ft | 321 kts | 162° |
| 2026-05-06 16:33 | 48.11729 | 11.83619 | 11556 ft | 326 kts | 162° |
| 2026-05-06 16:34 | 48.07407 | 11.86025 | 12997 ft | 333 kts | 162° |
| 2026-05-06 16:34 | 48.05249 | 11.87219 | 13681 ft | 337 kts | 162° |
| 2026-05-06 16:34 | 48.03010 | 11.88458 | 14299 ft | 340 kts | 163° |
| 2026-05-06 16:34 | 48.00776 | 11.89696 | 14677 ft | 344 kts | 163° |
| 2026-05-06 16:35 | 47.98559 | 11.90922 | 14770 ft | 343 kts | 163° |
| 2026-05-06 16:35 | 47.96312 | 11.92165 | 14787 ft | 343 kts | 163° |
| 2026-05-06 16:35 | 47.94073 | 11.93403 | 14789 ft | 343 kts | 163° |
| 2026-05-06 16:35 | 47.91811 | 11.94460 | 14755 ft | 336 kts | 173° |
| 2026-05-06 16:36 | 47.89521 | 11.94844 | 14766 ft | 329 kts | 183° |
| 2026-05-06 16:36 | 47.87231 | 11.94794 | 14825 ft | 330 kts | 184° |
| 2026-05-06 16:36 | 47.84923 | 11.94740 | 15481 ft | 332 kts | 184° |
| 2026-05-06 16:36 | 47.82603 | 11.94693 | 16163 ft | 333 kts | 184° |
| 2026-05-06 16:37 | 47.80278 | 11.94650 | 16829 ft | 335 kts | 185° |
| 2026-05-06 16:37 | 47.77977 | 11.94613 | 17503 ft | 336 kts | 184° |
| 2026-05-06 16:37 | 47.75628 | 11.94574 | 18119 ft | 338 kts | 184° |
| 2026-05-06 16:37 | 47.73262 | 11.94532 | 18661 ft | 341 kts | 185° |
| 2026-05-06 16:38 | 47.70877 | 11.94487 | 19206 ft | 344 kts | 185° |
| 2026-05-06 16:38 | 47.68464 | 11.94439 | 19707 ft | 346 kts | 185° |
| 2026-05-06 16:38 | 47.66044 | 11.94391 | 20153 ft | 348 kts | 185° |
| 2026-05-06 16:38 | 47.63608 | 11.94349 | 20608 ft | 351 kts | 185° |
| 2026-05-06 16:39 | 47.61150 | 11.94308 | 21104 ft | 353 kts | 185° |
| 2026-05-06 16:39 | 47.58710 | 11.94268 | 21482 ft | 357 kts | 185° |
| 2026-05-06 16:39 | 47.56179 | 11.94223 | 21977 ft | 360 kts | 185° |
| 2026-05-06 16:39 | 47.53666 | 11.94182 | 22464 ft | 363 kts | 185° |
| 2026-05-06 16:40 | 47.51168 | 11.94143 | 22924 ft | 365 kts | 185° |
| 2026-05-06 16:40 | 47.48616 | 11.94104 | 23406 ft | 368 kts | 185° |
| 2026-05-06 16:40 | 47.46043 | 11.94063 | 23824 ft | 370 kts | 185° |
| 2026-05-06 16:40 | 47.43457 | 11.94006 | 24226 ft | 370 kts | 187° |
| 2026-05-06 16:41 | 47.40906 | 11.93575 | 24630 ft | 369 kts | 192° |
| 2026-05-06 16:41 | 47.38353 | 11.93053 | 25049 ft | 371 kts | 192° |
| 2026-05-06 16:41 | 47.35780 | 11.92532 | 25463 ft | 373 kts | 192° |
| 2026-05-06 16:41 | 47.33236 | 11.92023 | 25862 ft | 374 kts | 192° |
| 2026-05-06 16:42 | 47.30645 | 11.91507 | 26258 ft | 376 kts | 192° |
| 2026-05-06 16:42 | 47.28044 | 11.90991 | 26665 ft | 378 kts | 192° |
| 2026-05-06 16:42 | 47.25429 | 11.90473 | 27098 ft | 379 kts | 192° |
| 2026-05-06 16:42 | 47.22810 | 11.89955 | 27493 ft | 380 kts | 193° |
| 2026-05-06 16:43 | 47.20175 | 11.89429 | 27857 ft | 382 kts | 193° |
| 2026-05-06 16:43 | 47.17565 | 11.88908 | 28268 ft | 383 kts | 193° |
| 2026-05-06 16:43 | 47.14921 | 11.88381 | 28716 ft | 383 kts | 193° |
| 2026-05-06 16:43 | 47.12266 | 11.87855 | 29047 ft | 385 kts | 193° |
| 2026-05-06 16:44 | 47.09604 | 11.87333 | 29329 ft | 385 kts | 193° |
| 2026-05-06 16:44 | 47.06978 | 11.86814 | 29561 ft | 386 kts | 193° |
| 2026-05-06 16:44 | 47.04304 | 11.86285 | 29914 ft | 387 kts | 193° |
| 2026-05-06 16:44 | 47.01627 | 11.85754 | 30139 ft | 388 kts | 194° |
| 2026-05-06 16:45 | 46.98963 | 11.85091 | 30417 ft | 388 kts | 196° |
| 2026-05-06 16:45 | 46.96317 | 11.84288 | 30689 ft | 388 kts | 198° |
| 2026-05-06 16:45 | 46.93683 | 11.83405 | 30998 ft | 388 kts | 198° |
| 2026-05-06 16:45 | 46.91056 | 11.82500 | 31319 ft | 387 kts | 198° |
| 2026-05-06 16:46 | 46.88436 | 11.81605 | 31673 ft | 386 kts | 198° |
| 2026-05-06 16:46 | 46.85815 | 11.80729 | 31927 ft | 385 kts | 198° |
| 2026-05-06 16:46 | 46.83221 | 11.79884 | 32205 ft | 385 kts | 197° |
| 2026-05-06 16:46 | 46.80610 | 11.79051 | 32455 ft | 384 kts | 197° |
| 2026-05-06 16:47 | 46.77993 | 11.78227 | 32707 ft | 384 kts | 197° |
| 2026-05-06 16:47 | 46.75377 | 11.77408 | 32820 ft | 383 kts | 197° |
| 2026-05-06 16:47 | 46.72762 | 11.76588 | 32837 ft | 382 kts | 197° |
| 2026-05-06 16:48 | 46.68438 | 11.75233 | 32854 ft | 382 kts | 197° |
| 2026-05-06 16:48 | 46.63245 | 11.73584 | 32853 ft | 380 kts | 200° |
| 2026-05-06 16:49 | 46.58535 | 11.70333 | 32857 ft | 373 kts | 218° |
| 2026-05-06 16:49 | 46.54382 | 11.65841 | 32884 ft | 372 kts | 218° |
| 2026-05-06 16:49 | 46.52317 | 11.63626 | 33173 ft | 372 kts | 217° |
| 2026-05-06 16:50 | 46.50230 | 11.61397 | 33521 ft | 371 kts | 217° |
| 2026-05-06 16:50 | 46.48150 | 11.59175 | 33868 ft | 370 kts | 217° |
| 2026-05-06 16:50 | 46.46071 | 11.56951 | 34164 ft | 370 kts | 217° |
| 2026-05-06 16:50 | 46.43995 | 11.54729 | 34386 ft | 371 kts | 217° |
| 2026-05-06 16:51 | 46.41911 | 11.52492 | 34602 ft | 373 kts | 217° |
| 2026-05-06 16:51 | 46.39844 | 11.50274 | 34817 ft | 374 kts | 217° |
| 2026-05-06 16:51 | 46.37749 | 11.48038 | 34997 ft | 375 kts | 217° |
| 2026-05-06 16:51 | 46.35637 | 11.45792 | 35185 ft | 375 kts | 217° |
| 2026-05-06 16:52 | 46.33519 | 11.43541 | 35370 ft | 376 kts | 217° |
| 2026-05-06 16:52 | 46.31428 | 11.41322 | 35566 ft | 378 kts | 217° |
| 2026-05-06 16:52 | 46.29305 | 11.39068 | 35762 ft | 378 kts | 217° |
| 2026-05-06 16:52 | 46.27176 | 11.36810 | 35927 ft | 380 kts | 217° |
| 2026-05-06 16:53 | 46.25043 | 11.34544 | 36118 ft | 380 kts | 217° |
| 2026-05-06 16:53 | 46.22901 | 11.32272 | 36293 ft | 382 kts | 217° |
| 2026-05-06 16:53 | 46.20750 | 11.29994 | 36477 ft | 382 kts | 217° |
| 2026-05-06 16:53 | 46.18618 | 11.27739 | 36632 ft | 384 kts | 217° |
| 2026-05-06 16:54 | 46.16462 | 11.25459 | 36820 ft | 384 kts | 217° |
| 2026-05-06 16:54 | 46.14296 | 11.23173 | 36950 ft | 384 kts | 217° |
| 2026-05-06 16:54 | 46.12133 | 11.20892 | 36930 ft | 384 kts | 217° |
| 2026-05-06 16:55 | 46.07833 | 11.16374 | 36933 ft | 385 kts | 217° |
| 2026-05-06 16:55 | 46.03496 | 11.11819 | 36916 ft | 385 kts | 217° |
| 2026-05-06 16:56 | 45.99166 | 11.07267 | 36907 ft | 383 kts | 217° |
| 2026-05-06 16:56 | 45.94846 | 11.02742 | 36896 ft | 384 kts | 217° |
| 2026-05-06 16:57 | 45.90548 | 10.98253 | 36891 ft | 384 kts | 217° |
| 2026-05-06 16:57 | 45.86214 | 10.93746 | 36892 ft | 384 kts | 217° |
| 2026-05-06 16:58 | 45.81877 | 10.89228 | 36889 ft | 384 kts | 217° |
| 2026-05-06 16:58 | 45.77558 | 10.84744 | 36891 ft | 383 kts | 217° |
| 2026-05-06 16:59 | 45.73256 | 10.80286 | 36900 ft | 382 kts | 217° |
| 2026-05-06 16:59 | 45.68944 | 10.75822 | 36889 ft | 382 kts | 217° |
| 2026-05-06 17:00 | 45.64650 | 10.71385 | 36890 ft | 381 kts | 217° |
| 2026-05-06 17:00 | 45.60349 | 10.66952 | 36890 ft | 380 kts | 217° |
| 2026-05-06 17:01 | 45.56052 | 10.62542 | 36870 ft | 379 kts | 217° |
| 2026-05-06 17:01 | 45.51755 | 10.58139 | 36865 ft | 379 kts | 217° |
| 2026-05-06 17:02 | 45.47499 | 10.53768 | 36875 ft | 379 kts | 217° |
| 2026-05-06 17:02 | 45.43219 | 10.49380 | 36865 ft | 378 kts | 217° |
| 2026-05-06 17:03 | 45.38941 | 10.45022 | 36859 ft | 378 kts | 217° |
| 2026-05-06 17:03 | 45.34662 | 10.40672 | 36855 ft | 377 kts | 217° |
| 2026-05-06 17:04 | 45.30385 | 10.36328 | 36857 ft | 377 kts | 217° |
| 2026-05-06 17:04 | 45.26142 | 10.32018 | 36822 ft | 377 kts | 217° |
| 2026-05-06 17:05 | 45.21865 | 10.27678 | 36823 ft | 377 kts | 217° |
| 2026-05-06 17:05 | 45.17582 | 10.23351 | 36825 ft | 377 kts | 217° |
| 2026-05-06 17:06 | 45.13320 | 10.19054 | 36824 ft | 377 kts | 217° |
| 2026-05-06 17:06 | 45.09002 | 10.14705 | 36812 ft | 378 kts | 217° |
| 2026-05-06 17:07 | 45.04738 | 10.10426 | 36812 ft | 378 kts | 217° |
| 2026-05-06 17:07 | 45.00447 | 10.06109 | 36832 ft | 378 kts | 217° |
| 2026-05-06 17:08 | 44.96148 | 10.01771 | 36831 ft | 378 kts | 217° |
| 2026-05-06 17:08 | 44.91866 | 9.97450 | 36816 ft | 378 kts | 217° |
| 2026-05-06 17:09 | 44.87604 | 9.93163 | 36837 ft | 378 kts | 217° |
| 2026-05-06 17:09 | 44.83295 | 9.88851 | 36824 ft | 379 kts | 217° |
| 2026-05-06 17:10 | 44.78994 | 9.84545 | 36828 ft | 378 kts | 217° |
| 2026-05-06 17:10 | 44.74699 | 9.80242 | 36828 ft | 378 kts | 217° |
| 2026-05-06 17:11 | 44.70439 | 9.75987 | 36831 ft | 377 kts | 217° |
| 2026-05-06 17:11 | 44.66144 | 9.71712 | 36844 ft | 377 kts | 217° |
| 2026-05-06 17:12 | 44.61856 | 9.67456 | 36855 ft | 377 kts | 217° |
| 2026-05-06 17:12 | 44.57570 | 9.63206 | 36860 ft | 377 kts | 217° |
| 2026-05-06 17:13 | 44.53296 | 9.58972 | 36853 ft | 378 kts | 217° |
| 2026-05-06 17:13 | 44.48991 | 9.54722 | 36864 ft | 378 kts | 217° |
| 2026-05-06 17:14 | 44.44680 | 9.50474 | 36876 ft | 379 kts | 217° |
| 2026-05-06 17:14 | 44.40384 | 9.46237 | 36897 ft | 379 kts | 217° |
| 2026-05-06 17:15 | 44.36064 | 9.41981 | 36892 ft | 380 kts | 217° |
| 2026-05-06 17:15 | 44.31731 | 9.37731 | 36885 ft | 381 kts | 217° |
| 2026-05-06 17:16 | 44.27377 | 9.33468 | 36895 ft | 381 kts | 217° |
| 2026-05-06 17:16 | 44.23037 | 9.29230 | 36870 ft | 382 kts | 217° |
| 2026-05-06 17:17 | 44.18673 | 9.24978 | 36881 ft | 383 kts | 217° |
| 2026-05-06 17:17 | 44.14299 | 9.20710 | 36891 ft | 383 kts | 217° |
| 2026-05-06 17:18 | 44.09947 | 9.16478 | 36890 ft | 383 kts | 217° |
| 2026-05-06 17:18 | 44.05571 | 9.12235 | 36882 ft | 383 kts | 217° |
| 2026-05-06 17:19 | 44.01189 | 9.07995 | 36925 ft | 383 kts | 217° |
| 2026-05-06 17:19 | 43.96813 | 9.03766 | 36901 ft | 382 kts | 217° |
| 2026-05-06 17:20 | 43.92432 | 8.99534 | 36895 ft | 382 kts | 217° |
| 2026-05-06 17:20 | 43.88085 | 8.95337 | 36897 ft | 382 kts | 217° |
| 2026-05-06 17:21 | 43.83708 | 8.91131 | 36893 ft | 381 kts | 217° |
| 2026-05-06 17:21 | 43.79347 | 8.86947 | 36903 ft | 380 kts | 217° |
| 2026-05-06 17:22 | 43.75023 | 8.82808 | 36902 ft | 380 kts | 217° |
| 2026-05-06 17:22 | 43.70678 | 8.78654 | 36882 ft | 379 kts | 217° |
| 2026-05-06 17:23 | 43.66336 | 8.74516 | 36876 ft | 379 kts | 216° |
| 2026-05-06 17:23 | 43.61486 | 8.71610 | 36915 ft | 388 kts | 196° |
| 2026-05-06 17:24 | 43.56953 | 8.71213 | 36900 ft | 396 kts | 186° |
| 2026-05-06 17:24 | 43.51527 | 8.70647 | 36883 ft | 381 kts | 206° |
| 2026-05-06 17:25 | 43.46980 | 8.67071 | 36863 ft | 376 kts | 214° |
| 2026-05-06 17:25 | 43.42538 | 8.63305 | 36861 ft | 377 kts | 214° |
| 2026-05-06 17:26 | 43.38064 | 8.59509 | 36875 ft | 378 kts | 214° |
| 2026-05-06 17:26 | 43.33591 | 8.55656 | 36896 ft | 378 kts | 218° |
| 2026-05-06 17:27 | 43.29538 | 8.51080 | 36875 ft | 376 kts | 224° |
| 2026-05-06 17:27 | 43.25785 | 8.46112 | 36892 ft | 376 kts | 230° |
| 2026-05-06 17:27 | 43.24497 | 8.42990 | 36891 ft | 377 kts | 252° |
| 2026-05-06 17:28 | 43.24035 | 8.39442 | 37055 ft | 378 kts | 257° |
| 2026-05-06 17:28 | 43.23444 | 8.35976 | 36911 ft | 376 kts | 244° |
| 2026-05-06 17:28 | 43.22057 | 8.32967 | 36909 ft | 372 kts | 226° |
| 2026-05-06 17:29 | 43.18032 | 8.28448 | 36870 ft | 375 kts | 219° |
| 2026-05-06 17:29 | 43.13878 | 8.24111 | 36871 ft | 378 kts | 219° |
| 2026-05-06 17:30 | 43.09671 | 8.19726 | 36890 ft | 380 kts | 219° |
| 2026-05-06 17:30 | 43.05498 | 8.15323 | 36902 ft | 380 kts | 221° |
| 2026-05-06 17:31 | 43.01459 | 8.10680 | 36910 ft | 378 kts | 223° |
| 2026-05-06 17:31 | 42.97478 | 8.05966 | 36918 ft | 378 kts | 222° |
| 2026-05-06 17:32 | 42.93472 | 8.01304 | 36904 ft | 377 kts | 222° |
| 2026-05-06 17:32 | 42.89476 | 7.96692 | 36937 ft | 377 kts | 222° |
| 2026-05-06 17:33 | 42.85458 | 7.92071 | 36926 ft | 378 kts | 222° |
| 2026-05-06 17:33 | 42.81439 | 7.87476 | 36926 ft | 379 kts | 222° |
| 2026-05-06 17:34 | 42.77391 | 7.82845 | 36928 ft | 379 kts | 222° |
| 2026-05-06 17:34 | 42.73344 | 7.78223 | 36912 ft | 379 kts | 222° |
| 2026-05-06 17:35 | 42.69302 | 7.73606 | 36920 ft | 379 kts | 222° |
| 2026-05-06 17:35 | 42.65281 | 7.69030 | 36923 ft | 379 kts | 222° |
| 2026-05-06 17:36 | 42.59214 | 7.62126 | 36931 ft | 379 kts | 222° |
| 2026-05-06 17:36 | 42.55161 | 7.57528 | 36963 ft | 379 kts | 222° |
| 2026-05-06 17:37 | 42.51106 | 7.52946 | 36951 ft | 379 kts | 222° |
| 2026-05-06 17:37 | 42.47060 | 7.48380 | 36947 ft | 380 kts | 222° |
| 2026-05-06 17:38 | 42.42991 | 7.43780 | 36954 ft | 380 kts | 222° |
| 2026-05-06 17:38 | 42.38943 | 7.39218 | 36953 ft | 380 kts | 222° |
| 2026-05-06 17:39 | 42.34866 | 7.34640 | 36929 ft | 380 kts | 222° |
| 2026-05-06 17:39 | 42.30786 | 7.30066 | 36943 ft | 380 kts | 222° |
| 2026-05-06 17:40 | 42.26730 | 7.25519 | 36950 ft | 380 kts | 222° |
| 2026-05-06 17:40 | 42.22639 | 7.20946 | 36953 ft | 380 kts | 222° |
| 2026-05-06 17:41 | 42.18562 | 7.16390 | 36958 ft | 380 kts | 222° |
| 2026-05-06 17:41 | 42.14478 | 7.11834 | 36944 ft | 380 kts | 222° |
| 2026-05-06 17:42 | 42.10396 | 7.07287 | 36951 ft | 380 kts | 222° |
| 2026-05-06 17:42 | 42.06339 | 7.02792 | 36953 ft | 380 kts | 222° |
| 2026-05-06 17:43 | 42.02257 | 6.98270 | 36958 ft | 379 kts | 222° |
| 2026-05-06 17:43 | 41.98299 | 6.93581 | 36923 ft | 378 kts | 225° |
| 2026-05-06 17:44 | 41.94446 | 6.88752 | 36926 ft | 378 kts | 225° |
| 2026-05-06 17:44 | 41.90583 | 6.83937 | 36971 ft | 379 kts | 225° |
| 2026-05-06 17:45 | 41.86687 | 6.79164 | 36963 ft | 379 kts | 225° |
| 2026-05-06 17:45 | 41.82809 | 6.74439 | 36959 ft | 379 kts | 225° |
| 2026-05-06 17:46 | 41.78900 | 6.69680 | 36931 ft | 379 kts | 225° |
| 2026-05-06 17:46 | 41.74988 | 6.64927 | 36941 ft | 379 kts | 225° |
| 2026-05-06 17:47 | 41.71070 | 6.60182 | 36945 ft | 379 kts | 225° |
| 2026-05-06 17:47 | 41.67150 | 6.55428 | 36951 ft | 380 kts | 225° |
| 2026-05-06 17:48 | 41.63245 | 6.50700 | 36958 ft | 380 kts | 224° |
| 2026-05-06 17:48 | 41.59315 | 6.45958 | 36973 ft | 380 kts | 225° |
| 2026-05-06 17:49 | 41.55412 | 6.41247 | 36968 ft | 379 kts | 225° |
| 2026-05-06 17:49 | 41.51482 | 6.36512 | 36970 ft | 379 kts | 225° |
| 2026-05-06 17:50 | 41.47580 | 6.31821 | 36970 ft | 379 kts | 225° |
| 2026-05-06 17:50 | 41.43654 | 6.27109 | 36970 ft | 379 kts | 225° |
| 2026-05-06 17:51 | 41.39717 | 6.22394 | 36968 ft | 380 kts | 224° |
| 2026-05-06 17:51 | 41.35805 | 6.17715 | 36942 ft | 380 kts | 225° |
| 2026-05-06 17:52 | 41.31851 | 6.12997 | 36952 ft | 380 kts | 224° |
| 2026-05-06 17:52 | 41.29881 | 6.10652 | 36772 ft | 379 kts | 225° |
| 2026-05-06 17:52 | 41.27939 | 6.08342 | 36198 ft | 378 kts | 225° |
| 2026-05-06 17:53 | 41.25984 | 6.06022 | 35968 ft | 376 kts | 225° |
| 2026-05-06 17:53 | 41.24032 | 6.03706 | 35957 ft | 376 kts | 225° |
| 2026-05-06 17:53 | 41.20123 | 5.99069 | 35959 ft | 377 kts | 225° |
| 2026-05-06 17:54 | 41.16195 | 5.94404 | 35961 ft | 379 kts | 225° |
| 2026-05-06 17:54 | 41.12275 | 5.89755 | 35961 ft | 380 kts | 225° |
| 2026-05-06 17:55 | 41.08322 | 5.85086 | 35961 ft | 380 kts | 224° |
| 2026-05-06 17:55 | 41.04372 | 5.80427 | 35961 ft | 379 kts | 224° |
| 2026-05-06 17:56 | 41.00417 | 5.75777 | 35963 ft | 380 kts | 224° |
| 2026-05-06 17:56 | 40.96511 | 5.71107 | 35959 ft | 380 kts | 229° |
| 2026-05-06 17:57 | 40.93379 | 5.65536 | 35957 ft | 376 kts | 242° |
| 2026-05-06 17:57 | 40.91020 | 5.59346 | 35958 ft | 376 kts | 243° |
| 2026-05-06 17:58 | 40.88675 | 5.53205 | 35960 ft | 376 kts | 243° |
| 2026-05-06 17:58 | 40.86314 | 5.47012 | 35962 ft | 376 kts | 243° |
| 2026-05-06 17:59 | 40.83953 | 5.40827 | 35960 ft | 376 kts | 243° |
| 2026-05-06 17:59 | 40.81603 | 5.34693 | 35958 ft | 376 kts | 243° |
| 2026-05-06 18:00 | 40.79237 | 5.28537 | 35959 ft | 375 kts | 243° |
| 2026-05-06 18:00 | 40.77268 | 5.23430 | 35960 ft | 375 kts | 243° |
| 2026-05-06 18:01 | 40.74506 | 5.16277 | 35959 ft | 376 kts | 243° |
| 2026-05-06 18:01 | 40.72534 | 5.11157 | 35958 ft | 376 kts | 243° |
| 2026-05-06 18:02 | 40.70157 | 5.04994 | 35957 ft | 376 kts | 243° |
| 2026-05-06 18:02 | 40.67783 | 4.98877 | 35958 ft | 376 kts | 243° |
| 2026-05-06 18:03 | 40.65400 | 4.92741 | 35963 ft | 375 kts | 243° |
| 2026-05-06 18:03 | 40.63030 | 4.86654 | 35958 ft | 375 kts | 243° |
| 2026-05-06 18:04 | 40.60638 | 4.80529 | 35956 ft | 375 kts | 243° |
| 2026-05-06 18:04 | 40.58271 | 4.74455 | 35956 ft | 375 kts | 243° |
| 2026-05-06 18:05 | 40.55882 | 4.68349 | 35958 ft | 375 kts | 243° |
| 2026-05-06 18:05 | 40.53490 | 4.62256 | 35959 ft | 375 kts | 243° |
| 2026-05-06 18:06 | 40.51098 | 4.56161 | 35976 ft | 375 kts | 243° |
| 2026-05-06 18:06 | 40.48695 | 4.50080 | 35958 ft | 374 kts | 243° |
| 2026-05-06 18:07 | 40.46312 | 4.44051 | 35958 ft | 374 kts | 243° |
| 2026-05-06 18:07 | 40.43917 | 4.37977 | 35960 ft | 374 kts | 243° |
| 2026-05-06 18:08 | 40.41516 | 4.31911 | 35959 ft | 374 kts | 243° |
| 2026-05-06 18:08 | 40.39110 | 4.25851 | 35930 ft | 374 kts | 243° |
| 2026-05-06 18:09 | 40.36718 | 4.19836 | 35957 ft | 374 kts | 243° |
| 2026-05-06 18:09 | 40.34305 | 4.13784 | 35958 ft | 373 kts | 243° |
| 2026-05-06 18:10 | 40.31889 | 4.07740 | 35956 ft | 373 kts | 243° |
| 2026-05-06 18:10 | 40.29488 | 4.01749 | 35956 ft | 373 kts | 243° |
| 2026-05-06 18:11 | 40.27073 | 3.95719 | 35956 ft | 373 kts | 243° |
| 2026-05-06 18:11 | 40.24659 | 3.89709 | 35956 ft | 373 kts | 243° |
| 2026-05-06 18:12 | 40.22239 | 3.83692 | 35950 ft | 373 kts | 243° |
| 2026-05-06 18:12 | 40.20937 | 3.80765 | 35790 ft | 372 kts | 237° |
| 2026-05-06 18:12 | 40.19442 | 3.78028 | 35325 ft | 368 kts | 236° |
| 2026-05-06 18:13 | 40.17939 | 3.75336 | 34834 ft | 364 kts | 236° |
| 2026-05-06 18:13 | 40.16459 | 3.72713 | 34409 ft | 359 kts | 236° |
| 2026-05-06 18:13 | 40.14980 | 3.70103 | 33994 ft | 355 kts | 236° |
| 2026-05-06 18:13 | 40.13520 | 3.67520 | 33508 ft | 351 kts | 236° |
| 2026-05-06 18:14 | 40.12077 | 3.64962 | 32995 ft | 348 kts | 236° |
| 2026-05-06 18:14 | 40.10645 | 3.62418 | 32472 ft | 345 kts | 236° |
| 2026-05-06 18:14 | 40.09223 | 3.59889 | 31951 ft | 343 kts | 236° |
| 2026-05-06 18:14 | 40.07810 | 3.57378 | 31447 ft | 341 kts | 236° |
| 2026-05-06 18:15 | 40.06415 | 3.54896 | 30897 ft | 337 kts | 236° |
| 2026-05-06 18:15 | 40.05028 | 3.52435 | 30247 ft | 337 kts | 235° |
| 2026-05-06 18:15 | 40.03645 | 3.49978 | 29726 ft | 335 kts | 235° |
| 2026-05-06 18:15 | 40.02286 | 3.47563 | 29186 ft | 333 kts | 235° |
| 2026-05-06 18:16 | 40.00918 | 3.45134 | 28642 ft | 331 kts | 235° |
| 2026-05-06 18:16 | 39.99557 | 3.42722 | 28118 ft | 329 kts | 235° |
| 2026-05-06 18:16 | 39.98203 | 3.40324 | 27599 ft | 327 kts | 235° |
| 2026-05-06 18:16 | 39.96857 | 3.37943 | 27075 ft | 325 kts | 235° |
| 2026-05-06 18:17 | 39.95518 | 3.35575 | 26579 ft | 323 kts | 235° |
| 2026-05-06 18:17 | 39.94183 | 3.33217 | 26090 ft | 322 kts | 235° |
| 2026-05-06 18:17 | 39.92852 | 3.30876 | 25624 ft | 320 kts | 235° |
| 2026-05-06 18:17 | 39.91542 | 3.28580 | 25161 ft | 319 kts | 235° |
| 2026-05-06 18:18 | 39.90221 | 3.26263 | 24960 ft | 319 kts | 234° |
| 2026-05-06 18:18 | 39.88897 | 3.23940 | 24948 ft | 320 kts | 235° |
| 2026-05-06 18:18 | 39.87565 | 3.21597 | 24948 ft | 321 kts | 235° |
| 2026-05-06 18:18 | 39.86239 | 3.19264 | 24947 ft | 321 kts | 235° |
| 2026-05-06 18:19 | 39.84905 | 3.16920 | 24949 ft | 321 kts | 235° |
| 2026-05-06 18:19 | 39.83590 | 3.14609 | 24958 ft | 321 kts | 235° |
| 2026-05-06 18:19 | 39.82263 | 3.12275 | 24960 ft | 321 kts | 235° |
| 2026-05-06 18:19 | 39.80929 | 3.09935 | 24958 ft | 321 kts | 235° |
| 2026-05-06 18:20 | 39.79598 | 3.07602 | 24955 ft | 321 kts | 234° |
| 2026-05-06 18:20 | 39.78265 | 3.05272 | 24970 ft | 321 kts | 234° |
| 2026-05-06 18:20 | 39.76930 | 3.02944 | 24953 ft | 321 kts | 235° |
| 2026-05-06 18:20 | 39.75593 | 3.00612 | 24951 ft | 320 kts | 235° |
| 2026-05-06 18:21 | 39.74281 | 2.98321 | 24954 ft | 319 kts | 235° |
| 2026-05-06 18:21 | 39.72955 | 2.96012 | 24952 ft | 319 kts | 235° |
| 2026-05-06 18:21 | 39.71623 | 2.93696 | 24956 ft | 319 kts | 235° |
| 2026-05-06 18:21 | 39.70296 | 2.91388 | 24956 ft | 319 kts | 235° |
| 2026-05-06 18:22 | 39.68965 | 2.89074 | 24952 ft | 319 kts | 235° |
| 2026-05-06 18:22 | 39.67644 | 2.86770 | 24953 ft | 319 kts | 235° |
| 2026-05-06 18:22 | 39.66317 | 2.84459 | 24956 ft | 319 kts | 235° |
| 2026-05-06 18:22 | 39.64991 | 2.82156 | 24953 ft | 319 kts | 235° |
| 2026-05-06 18:23 | 39.63677 | 2.79873 | 24947 ft | 319 kts | 235° |
| 2026-05-06 18:23 | 39.62346 | 2.77564 | 24948 ft | 319 kts | 235° |
| 2026-05-06 18:23 | 39.61016 | 2.75262 | 24952 ft | 319 kts | 234° |
| 2026-05-06 18:23 | 39.59678 | 2.72950 | 24946 ft | 319 kts | 234° |
| 2026-05-06 18:24 | 39.58348 | 2.70652 | 24948 ft | 319 kts | 234° |
| 2026-05-06 18:24 | 39.57017 | 2.68356 | 24812 ft | 316 kts | 234° |
| 2026-05-06 18:24 | 39.55712 | 2.66105 | 24366 ft | 315 kts | 234° |
| 2026-05-06 18:24 | 39.54377 | 2.63802 | 23877 ft | 315 kts | 235° |
| 2026-05-06 18:25 | 39.53082 | 2.61568 | 23448 ft | 312 kts | 234° |
| 2026-05-06 18:25 | 39.51777 | 2.59318 | 22964 ft | 311 kts | 234° |
| 2026-05-06 18:25 | 39.50476 | 2.57078 | 22471 ft | 310 kts | 234° |
| 2026-05-06 18:25 | 39.49181 | 2.54848 | 21990 ft | 309 kts | 234° |
| 2026-05-06 18:26 | 39.47886 | 2.52621 | 21515 ft | 308 kts | 234° |
| 2026-05-06 18:26 | 39.46598 | 2.50406 | 21055 ft | 308 kts | 235° |
| 2026-05-06 18:26 | 39.45313 | 2.48195 | 20620 ft | 307 kts | 235° |
| 2026-05-06 18:26 | 39.44028 | 2.45989 | 20151 ft | 306 kts | 235° |
| 2026-05-06 18:27 | 39.42745 | 2.43783 | 19740 ft | 306 kts | 235° |
| 2026-05-06 18:27 | 39.41483 | 2.41615 | 19327 ft | 305 kts | 235° |
| 2026-05-06 18:27 | 39.40188 | 2.39395 | 18917 ft | 305 kts | 235° |
| 2026-05-06 18:27 | 39.38928 | 2.37239 | 18522 ft | 304 kts | 234° |
| 2026-05-06 18:28 | 39.37647 | 2.35051 | 18116 ft | 304 kts | 234° |
| 2026-05-06 18:28 | 39.36371 | 2.32875 | 17934 ft | 304 kts | 234° |
| 2026-05-06 18:28 | 39.35087 | 2.30685 | 17949 ft | 305 kts | 234° |
| 2026-05-06 18:28 | 39.33803 | 2.28493 | 17948 ft | 306 kts | 234° |
| 2026-05-06 18:29 | 39.32519 | 2.26300 | 17936 ft | 306 kts | 234° |
| 2026-05-06 18:29 | 39.31234 | 2.24107 | 17944 ft | 306 kts | 234° |
| 2026-05-06 18:29 | 39.29957 | 2.21930 | 17603 ft | 303 kts | 234° |
| 2026-05-06 18:29 | 39.28681 | 2.19755 | 17186 ft | 302 kts | 234° |
| 2026-05-06 18:30 | 39.27412 | 2.17597 | 16795 ft | 301 kts | 234° |
| 2026-05-06 18:30 | 39.26144 | 2.15450 | 16427 ft | 300 kts | 234° |
| 2026-05-06 18:30 | 39.24877 | 2.13308 | 16050 ft | 299 kts | 234° |
| 2026-05-06 18:30 | 39.23628 | 2.11191 | 15706 ft | 298 kts | 234° |
| 2026-05-06 18:31 | 39.22374 | 2.09061 | 15353 ft | 297 kts | 234° |
| 2026-05-06 18:31 | 39.21124 | 2.06936 | 15001 ft | 297 kts | 234° |
| 2026-05-06 18:31 | 39.19876 | 2.04821 | 14657 ft | 296 kts | 234° |
| 2026-05-06 18:31 | 39.18628 | 2.02713 | 14338 ft | 295 kts | 234° |
| 2026-05-06 18:32 | 39.17382 | 2.00609 | 13982 ft | 294 kts | 234° |
| 2026-05-06 18:32 | 39.16141 | 1.98511 | 13643 ft | 293 kts | 234° |
| 2026-05-06 18:32 | 39.14905 | 1.96423 | 13272 ft | 293 kts | 234° |
| 2026-05-06 18:32 | 39.13673 | 1.94339 | 12902 ft | 292 kts | 234° |
| 2026-05-06 18:33 | 39.12447 | 1.92263 | 12532 ft | 291 kts | 234° |
| 2026-05-06 18:33 | 39.11222 | 1.90187 | 12172 ft | 290 kts | 234° |
| 2026-05-06 18:33 | 39.10019 | 1.88150 | 11817 ft | 289 kts | 234° |
| 2026-05-06 18:33 | 39.08804 | 1.86100 | 11458 ft | 288 kts | 234° |
| 2026-05-06 18:34 | 39.07586 | 1.84052 | 11093 ft | 287 kts | 234° |
| 2026-05-06 18:34 | 39.06369 | 1.82013 | 10726 ft | 286 kts | 234° |
| 2026-05-06 18:34 | 39.05154 | 1.79977 | 10366 ft | 286 kts | 234° |
| 2026-05-06 18:34 | 39.03945 | 1.77949 | 10004 ft | 285 kts | 234° |
| 2026-05-06 18:35 | 39.02738 | 1.75924 | 9637 ft | 284 kts | 234° |
| 2026-05-06 18:35 | 39.01537 | 1.73909 | 9254 ft | 283 kts | 234° |
| 2026-05-06 18:35 | 39.00359 | 1.71933 | 8958 ft | 281 kts | 234° |
| 2026-05-06 18:35 | 38.99164 | 1.69923 | 8939 ft | 282 kts | 234° |
| 2026-05-06 18:36 | 38.97966 | 1.67912 | 8947 ft | 283 kts | 234° |
| 2026-05-06 18:36 | 38.96766 | 1.65901 | 8946 ft | 283 kts | 234° |
| 2026-05-06 18:36 | 38.95569 | 1.63895 | 8946 ft | 283 kts | 234° |
| 2026-05-06 18:36 | 38.94382 | 1.61911 | 8946 ft | 283 kts | 234° |
| 2026-05-06 18:37 | 38.93181 | 1.59908 | 8944 ft | 283 kts | 234° |
| 2026-05-06 18:37 | 38.92381 | 1.58576 | 8945 ft | 283 kts | 234° |
| 2026-05-06 18:37 | 38.90768 | 1.55886 | 8946 ft | 283 kts | 234° |
| 2026-05-06 18:37 | 38.89970 | 1.54556 | 8947 ft | 283 kts | 234° |
| 2026-05-06 18:38 | 38.88768 | 1.52548 | 8950 ft | 283 kts | 234° |
| 2026-05-06 18:38 | 38.87565 | 1.50542 | 8946 ft | 284 kts | 234° |
| 2026-05-06 18:38 | 38.85966 | 1.47882 | 8948 ft | 284 kts | 233° |
| 2026-05-06 18:38 | 38.84761 | 1.45880 | 8763 ft | 282 kts | 234° |
| 2026-05-06 18:39 | 38.83952 | 1.44537 | 8495 ft | 281 kts | 233° |
| 2026-05-06 18:39 | 38.82774 | 1.42581 | 8082 ft | 280 kts | 233° |
| 2026-05-06 18:39 | 38.81583 | 1.40602 | 7675 ft | 279 kts | 233° |
| 2026-05-06 18:40 | 38.79211 | 1.36666 | 6886 ft | 278 kts | 233° |
| 2026-05-06 18:40 | 38.78029 | 1.34711 | 6475 ft | 277 kts | 232° |
| 2026-05-06 18:40 | 38.76859 | 1.32780 | 6233 ft | 266 kts | 232° |
| 2026-05-06 18:40 | 38.75766 | 1.30978 | 6076 ft | 249 kts | 232° |
| 2026-05-06 18:41 | 38.74714 | 1.29238 | 5838 ft | 244 kts | 232° |
| 2026-05-06 18:41 | 38.73753 | 1.27487 | 5499 ft | 243 kts | 240° |
| 2026-05-06 18:41 | 38.73064 | 1.25444 | 4751 ft | 253 kts | 249° |
| 2026-05-06 18:41 | 38.72515 | 1.23250 | 3787 ft | 267 kts | 251° |
| 2026-05-06 18:42 | 38.71970 | 1.20961 | 3193 ft | 266 kts | 252° |
| 2026-05-06 18:42 | 38.71431 | 1.18689 | 3028 ft | 269 kts | 252° |
| 2026-05-06 18:42 | 38.71017 | 1.16364 | 2993 ft | 269 kts | 268° |
| 2026-05-06 18:42 | 38.71384 | 1.14062 | 3004 ft | 270 kts | 297° |
| 2026-05-06 18:43 | 38.72569 | 1.12229 | 3001 ft | 265 kts | 327° |
| 2026-05-06 18:43 | 38.74166 | 1.11425 | 2997 ft | 232 kts | 357° |
| 2026-05-06 18:43 | 38.75703 | 1.11598 | 3002 ft | 219 kts | 18° |
| 2026-05-06 18:43 | 38.77178 | 1.11905 | 2996 ft | 206 kts | 6° |
| 2026-05-06 18:44 | 38.78583 | 1.12059 | 2994 ft | 199 kts | 21° |
| 2026-05-06 18:44 | 38.79629 | 1.13020 | 3020 ft | 178 kts | 57° |
| 2026-05-06 18:44 | 38.80206 | 1.14294 | 3022 ft | 155 kts | 65° |
| 2026-05-06 18:44 | 38.80587 | 1.15543 | 3006 ft | 146 kts | 77° |
| 2026-05-06 18:45 | 38.80785 | 1.16822 | 3013 ft | 142 kts | 84° |
| 2026-05-06 18:45 | 38.80960 | 1.18067 | 3009 ft | 141 kts | 79° |
| 2026-05-06 18:45 | 38.81180 | 1.19289 | 3011 ft | 139 kts | 78° |
| 2026-05-06 18:45 | 38.81409 | 1.20464 | 2756 ft | 135 kts | 78° |
| 2026-05-06 18:46 | 38.81641 | 1.21628 | 2446 ft | 134 kts | 77° |
| 2026-05-06 18:46 | 38.81858 | 1.22783 | 2138 ft | 133 kts | 78° |
| 2026-05-06 18:46 | 38.82066 | 1.23929 | 2015 ft | 132 kts | 78° |
| 2026-05-06 18:46 | 38.82288 | 1.25064 | 1966 ft | 135 kts | 71° |
| 2026-05-06 18:47 | 38.82697 | 1.26161 | 1750 ft | 133 kts | 65° |
| 2026-05-06 18:47 | 38.83118 | 1.27220 | 1549 ft | 134 kts | 64° |
| 2026-05-06 18:47 | 38.83546 | 1.28274 | 1377 ft | 133 kts | 65° |
| 2026-05-06 18:47 | 38.83973 | 1.29315 | 1192 ft | 134 kts | 63° |
| 2026-05-06 18:48 | 38.84408 | 1.30368 | 1021 ft | 132 kts | 64° |
| 2026-05-06 18:48 | 38.84840 | 1.31410 | 828 ft | 131 kts | 64° |
| 2026-05-06 18:48 | 38.85270 | 1.32449 | 662 ft | 133 kts | 64° |
| 2026-05-06 18:48 | 38.85703 | 1.33493 | 476 ft | 131 kts | 64° |
| 2026-05-06 18:49 | 38.86136 | 1.34536 | 318 ft | 132 kts | 64° |
| 2026-05-06 18:49 | 38.86567 | 1.35576 | 123 ft | 131 kts | 64° |
| 2026-05-06 18:49 | 38.86984 | 1.36585 | 29 ft | 117 kts | 62° |
| 2026-05-06 18:49 | 38.87285 | 1.37312 | 30 ft | 67 kts | 62° |
| 2026-05-06 18:50 | 38.87440 | 1.37684 | 27 ft | 37 kts | 61° |
| 2026-05-06 18:50 | 38.87588 | 1.37863 | 30 ft | 17 kts | 27° |
| 2026-05-06 18:50 | 38.87639 | 1.37899 | 30 ft | 0 kts | 28° |
| 2026-05-06 18:51 | 38.87653 | 1.37908 | 30 ft | 9 kts | 26° |
| 2026-05-06 18:51 | 38.87695 | 1.37866 | 30 ft | 8 kts | 268° |
| 2026-05-06 18:51 | 38.87672 | 1.37801 | 29 ft | 8 kts | 242° |
| 2026-05-06 18:52 | 38.87648 | 1.37743 | 29 ft | 7 kts | 242° |
| 2026-05-06 18:52 | 38.87627 | 1.37692 | 29 ft | 6 kts | 242° |
| 2026-05-06 18:52 | 38.87606 | 1.37642 | 29 ft | 9 kts | 242° |
| 2026-05-06 18:52 | 38.87584 | 1.37571 | 29 ft | 8 kts | 271° |
| 2026-05-06 18:53 | 38.87622 | 1.37529 | 29 ft | 7 kts | 332° |
| 2026-05-06 18:53 | 38.87662 | 1.37501 | 29 ft | 6 kts | 332° |
| 2026-05-06 18:53 | 38.87694 | 1.37471 | 29 ft | 8 kts | 307° |
| 2026-05-06 18:53 | 38.87687 | 1.37393 | 29 ft | 9 kts | 245° |
| 2026-05-06 18:54 | 38.87660 | 1.37325 | 29 ft | 8 kts | 242° |
| 2026-05-06 18:54 | 38.87634 | 1.37263 | 29 ft | 7 kts | 242° |
| 2026-05-06 18:54 | 38.87598 | 1.37178 | 29 ft | 9 kts | 241° |
| 2026-05-06 18:54 | 38.87569 | 1.37109 | 29 ft | 8 kts | 241° |
| 2026-05-06 18:55 | 38.87542 | 1.37046 | 28 ft | 8 kts | 241° |
| 2026-05-06 18:55 | 38.87519 | 1.36987 | 28 ft | 7 kts | 256° |
| 2026-05-06 18:55 | 38.87543 | 1.36952 | 28 ft | 5 kts | 333° |
| 2026-05-06 18:55 | 38.87570 | 1.36932 | 28 ft | 4 kts | 330° |
| 2026-05-06 18:56 | 38.87577 | 1.36927 | 28 ft | 0 kts | 330° |